Terminal Aerodrome Forecast
Issued by NWS

Home | Current Version | Previous Version | Graphics & Text | Print | Product List | Glossary Off
Versions: 1 2 3 4 5 6 7 8 9 10 11 12 13 14 15 16 17 18

575
FTUS43 KOAX 290526
TAFCDR
TAF
KCDR 290526Z 2906/3006 VRB04KT P6SM SKC
     FM291600 06006KT P6SM FEW050
     FM292200 13008KT P6SM VCTS SCT060CB BKN100=

USA.gov is the U.S. government's official web portal to all federal, state and local government web resources and services.